NWS Home NWS Lubbock West Texas Mesonet Latest Conditions as of 0706 PM, Wed Apr 01, 2015

Latest   N   C   S   Daily Sum   3hrΔ   24hrΔ   Soil Data 
Site Map   24hr Precip   72hr Precip   Google Plot


Station Time of Last Temp Dew Pt. RH Wind Direction Wind Speed Wind Gust Max Wind Max Temp Min Temp Max RH Min RH Altimeter 1HR Rain Today's Rain Solar Rad Red Flag
Abernathy 5ENE  07:00 PM 81 27 14% W1316 26 mph 197° @ 0250 PM 85 47 85 13 29.74" 0 0.00 112  
Aiken 3WSW  07:00 PM 84 31 15% SW1619 26 mph 196° @ 0137 PM 87 46 81 14 29.73" 0 0.00 205  
Amarillo 15NNW   07:00 PM 85 27 12% SW2326 36 mph 220° @ 0630 PM 89 51 65 10 29.66" 0 0.00 152 36
Amarillo 7SSE  07:01 PM 83 29 14% W1924 27 mph 241° @ 0519 PM 88 44 78 12 29.71" 0 0.00 241 3
Amarillo 9NNE  07:00 PM 83 27 13% SW1823 29 mph 240° @ 0643 PM 89 47 72 10 29.67" 0 0.00 53 6
Amherst 1NE  07:00 PM 82 26 13% W1620 33 mph 261° @ 0325 PM 85 45 82 11 29.75" 0 0.00 162  
Andrews 2E  07:00 PM 83 34 17% SW1319 22 mph 205° @ 0655 PM 85 56 86 15 29.79" 0 0.00 190  
Anton 6SSW  07:00 PM 84 26 12% W1216 25 mph 229° @ 0325 PM 87 46 86 11 29.74" 0 0.00 251  
Aspermont 3NE  07:00 PM 86 48 27% S1721 29 mph 171° @ 0500 PM 88 65 81 24 29.70" 0 0.00 176  
Big Bend NP - Persimmon Gap  07:01 PM 84 43 24% SW911 24 mph 225° @ 0301 PM 86 55 96 22 29.85" 0 0.09 202  
Big Lake 1WNW  07:01 PM 81 51 35% S1416 32 mph 194° @ 0404 AM 83 60 95 33 29.83" 0 0.01 156  
Bootleg 11WNW  07:01 PM 77 25 14% W1924 42 mph 242° @ 0537 PM 83 47 69 12 29.79" 0 0.00 202 118
Boys Ranch 1WSW  07:00 PM 85 24 11% SW1520 34 mph 247° @ 0525 PM 90 40 77 9 29.65" 0 0.00 230 14
Brownfield 2S  07:00 PM 82 26 13% SW1117 26 mph 232° @ 0320 PM 86 52 78 11 29.76" 0 0.01 86  
Canadian 6E  07:01 PM 87 37 17% S1114 34 mph 222° @ 0609 PM 91 51 92 15 29.60" 0 0.00 202  
Caprock Canyons State Park  07:01 PM 83 32 16% S1215 28 mph 199° @ 0538 PM 88 51 84 13 29.68" 0 0.00 67  
Childress 2NNE  07:00 PM 87 40 20% S2027 33 mph 175° @ 0540 PM 90 54 94 19 29.64" 0 0.00 171  
Clarendon 2WSW  07:00 PM 82 29 15% SE1930 47 mph 226° @ 0650 PM 88 50 89 12 29.68" 0 0.00 127 5
Claude 12SW  07:01 PM 82 31 16% SW810 30 mph 235° @ 0345 PM 86 48 89 13 29.70" 0 0.00 165  
Coyanosa 2N  07:01 PM 87 38 18% W78 22 mph 251° @ 1150 AM 88 55 75 17 29.79" 0 0.00 195  
Denver City 7WNW  01:25 PM 79 32 18% NW1318 25 mph 260° @ 1150 AM 79 49 75 18 29.88" 0 0.00 923  
Dimmitt 2NE  07:00 PM 78 28 16% SW1620 31 mph 241° @ 0550 PM 84 42 85 13 29.74" 0 0.00 107 10
Dora NM 2SW  07:00 PM 77 26 15% W1929 40 mph 266° @ 0400 PM 82 50 70 13 29.80" 0 0.00 122 35
Dozier 3W  07:00 PM 87 38 18% S1417 33 mph 208° @ 0400 PM 91 51 96 17 29.65" 0 0.00 246  
Floydada 2NNE  07:00 PM 81 25 13% SW1218 27 mph 217° @ 1125 AM 86 52 66 12 29.72" 0 0.00 66  
Fluvanna 3WNW  07:00 PM 84 38 20% SW1519 27 mph 218° @ 1210 PM 86 61 81 18 29.75" 0 0.00 175  
Fort Chadbourne  07:00 PM 83 51 33% SW1015 24 mph 204° @ 0650 PM 85 62 95 27 29.78" 0 0.00 171  
Fort McKavett  07:00 PM 78 56 46% S1316 24 mph 188° @ 0438 PM 83 63 94 34 29.86" 0 0.00 185  
Friona 2NE  07:00 PM 79 25 14% W2027 36 mph 245° @ 0555 PM 84 41 85 12 29.76" 0 0.00 165 15
Gail 2ESE  07:00 PM 83 41 23% S1218 26 mph 183° @ 1240 AM 86 57 91 22 29.74" 0 0.00 176  
Goodlett 3W  07:00 PM 85 51 31% S2329 33 mph 150° @ 0635 PM 91 55 92 19 29.64" 0 0.00 167  
Goodnight  07:01 PM 83 32 16% S1416 29 mph 243° @ 0551 PM 89 45 97 12 29.70" 0 0.00 175 3
Graham 5SSW  07:00 PM 83 35 18% S1519 30 mph 193° @ 0210 PM 85 61 76 17 29.74" 0 0.00 49  
Guthrie 10WSW  07:00 PM 87 41 20% S1418 28 mph 209° @ 1055 AM 90 58 83 19 29.68" 0 0.00 165  
Hart 3N  07:00 PM 81 28 14% SW1522 31 mph 263° @ 0615 PM 85 42 83 12 29.74" 0 0.00 222 10
Haskell 1NW  07:00 PM 83 49 31% S1320 28 mph 176° @ 0335 PM 84 64 79 29 29.71" 0 0.00 171  
Hereford 2NW  07:00 PM 80 24 13% W1925 35 mph 237° @ 0535 PM 86 42 81 10 29.73" 0 0.00 265 70
Hobbs NM 5NW  07:01 PM 81 28 14% SW1214 23 mph 258° @ 0652 PM 85 50 72 12 29.83" 0 0.00 190  
Jayton 1SSE  07:00 PM 87 41 20% SW1116 28 mph 191° @ 0245 PM 88 62 82 19 29.70" 0 0.00 189  
Junction 1SSW  07:01 PM 79 58 48% S1218 27 mph 192° @ 0323 PM 82 62 96 43 29.85" 0 0.00 165  
Knox City 3NW  07:00 PM 84 49 30% S1622 32 mph 173° @ 0410 PM 86 62 78 27 29.69" 0 0.00 122  
Lake Alan Henry 1NW  07:01 PM 84 42 22% SW1318 27 mph 217° @ 0101 PM 87 61 83 20 29.72" 0 0.00 173  
Lamesa 2SE  07:00 PM 80 40 24% SW1722 25 mph 220° @ 1035 AM 85 51 95 21 29.77" 0 0.00 175  
Levelland 4S  07:00 PM 82 23 11% SW1519 26 mph 263° @ 0425 PM 87 48 75 11 29.75" 0 0.00 106  
Lomax 1SSE  07:01 PM 85 41 21% SW1213 39 mph 235° @ 0204 PM 87 62 84 20 29.78" 0 0.00 203  
Lubbock 3WNW TTU  07:00 PM 85 24 11% SW1418 23 mph 231° @ 0450 PM 88 55 63 11 29.74" 0 0.00 214  
McLean 1E  07:00 PM 84 30 15% S1620 35 mph 200° @ 0535 PM 88 51 94 14 29.65" 0 0.00 115 10
Memphis 1NE  07:00 PM 87 36 17% S1118 29 mph 209° @ 0115 PM 91 50 93 12 29.63" 0 0.01 41  
Menard 2NW   07:00 PM 79 57 48% S1014 28 mph 196° @ 0459 PM 84 62 96 35 29.85" 0 0.00 153  
Mertzon 3NNE  07:01 PM 80 54 41% S1418 28 mph 194° @ 0410 AM 83 60 92 34 29.82" 0 0.01 144  
Morton 1ENE  07:00 PM 80 26 13% SW1521 26 mph 258° @ 0525 PM 85 47 78 11 29.76" 0 0.00 131  
Muleshoe 2SSW  07:00 PM 79 24 13% W1825 28 mph 262° @ 0545 PM 85 37 92 11 29.76" 0 0.00 99  
Northfield 1S  07:00 PM 85 41 21% S1622 32 mph 183° @ 0445 PM 90 54 92 17 29.65" 0 0.00 49  
O'Donnell 1N  07:00 PM 82 35 18% SW1926 29 mph 237° @ 1100 AM 86 55 86 14 29.76" 0 0.00 70  
Odell 4ENE  07:01 PM 80 55 42% S1518 31 mph 163° @ 0434 PM 86 57 96 30 29.68" 0 0.00 125  
Olton 6S  07:00 PM 80 26 14% W1417 23 mph 260° @ 0530 PM 86 45 81 11 29.74" 0 0.00 137  
Paducah 10SW  07:00 PM 85 42 22% S1521 29 mph 201° @ 0105 PM 89 56 89 20 29.67" 0 0.00 147  
Palo Duro Canyon SP Floor  07:00 PM 89 28 11% SW35 25 mph 300° @ 0325 PM 91 81 22 11 29.66" 0 0.00 265  
Palo Duro Canyon State Park Rim  07:01 PM 85 29 13% SW1218 34 mph 228° @ 0317 PM 87 51 62 12 29.71" 0 0.00 230 1
Pampa 2E  07:00 PM 80 28 15% SW1116 30 mph 214° @ 0525 PM 87 49 95 13 29.66" 0 0.00 26  
Plains 3N  07:00 PM 79 29 16% SW1416 27 mph 253° @ 0540 PM 85 49 77 13 29.79" 0 0.00 146  
Plainview 1S  07:00 PM 83 27 13% W1217 28 mph 239° @ 0500 PM 86 49 77 12 29.72" 0 0.00 120  
Post 1NE  07:00 PM 82 38 21% S1116 26 mph 191° @ 0120 PM 88 60 72 16 29.72" 0 0.00 50  
Ralls 1SE  07:00 PM 83 35 18% S1417 28 mph 239° @ 0150 PM 86 50 77 16 29.74" 0 0.00 171  
Reese Center  07:00 PM 81 26 13% W1216 26 mph 244° @ 0630 PM 86 49 79 12 29.74" 0 0.00 77  
Roaring Springs 3N  07:00 PM 83 40 22% S1823 31 mph 209° @ 0255 PM 88 53 81 19 29.70" 0 0.01 139  
San Angelo 7NW  07:00 PM 81 50 35% S1319 32 mph 207° @ 0505 PM 85 63 86 27 29.80" 0 0.01 154  
Seagraves 1SW  07:00 PM 83 27 13% SW1215 27 mph 244° @ 0500 PM 88 50 77 12 29.77" 0 0.00 126  
Seminole 2NNE  07:00 PM 84 28 13% SW812 22 mph 208° @ 0950 AM 85 50 75 12 29.78" 0 0.00 223  
Seymour 3NW  07:00 PM 83 55 39% SE1418 30 mph 179° @ 0315 PM 86 61 82 27 29.70" 0 0.00 156  
Silverton 7ESE  07:00 PM 82 31 16% S710 33 mph 206° @ 0315 PM 88 49 85 12 29.71" 0 0.00 78  
Slaton 2NE  07:00 PM 83 33 17% S1924 28 mph 219° @ 1230 PM 86 56 77 15 29.73" 0 0.00 212  
Snyder 3E  07:00 PM 84 42 23% S1218 25 mph 188° @ 0315 PM 88 60 97 20 29.74" 0 0.00 158  
Spur 1W  07:00 PM 84 38 20% S1621 27 mph 189° @ 0650 PM 87 51 83 18 29.70" 0 0.00 175  
St. Lawrence 5SW  07:00 PM 84 44 25% S1220 29 mph 198° @ 0520 AM 87 59 91 19 29.80" 0 0.00 181  
Sterling City 4WSW  07:01 PM 82 52 35% S1519 28 mph 184° @ 0437 AM 85 61 87 27 29.79" 0 0.00 145  
Sundown 8WSW  07:00 PM 82 26 13% SW1520 28 mph 240° @ 0620 PM 87 47 79 11 29.77" 0 0.00 188  
Sweetwater 11SW   07:00 PM 82 49 32% S1618 29 mph 207° @ 0347 PM 85 61 96 28 29.79" 0 0.00 181  
Tahoka 3NNE  07:00 PM 82 35 19% SW1315 27 mph 220° @ 0140 PM 87 55 83 15 29.74" 0 0.00 78  
Tarzan 2WNW  07:00 PM 83 41 23% SW1318 25 mph 222° @ 0503 PM 85 55 91 22 29.78" 0 0.00 183  
Tatum NM 2SW  07:00 PM 81 28 15% SW1723 28 mph 253° @ 0545 PM 84 45 81 12 29.81" 0 0.00 253  
Tulia 2ENE  07:00 PM 83 28 13% SW1725 28 mph 242° @ 0650 PM 87 42 87 12 29.72" 0 0.00 208  
Turkey 2WSW  07:00 PM 85 32 15% S811 29 mph 211° @ 1255 PM 89 49 93 13 29.66" 0 0.00 75  
Umbarger 3NNE  07:00 PM 79 29 16% SW1720 33 mph 250° @ 0609 PM 86 43 83 13 29.73" 0 0.00 119 23
Wall 1E  07:00 PM 82 49 32% SW1520 29 mph 196° @ 0220 AM 85 64 84 25 29.81" 0 0.00 133  
Weinert 2NNE  07:01 PM 84 53 35% S1516 31 mph 196° @ 0513 PM 86 61 82 34 29.71" 0 0.00 152  
White River Lake 6NW  07:00 PM 82 38 21% S1520 34 mph 179° @ 0520 PM 87 54 69 18 29.71" 0 0.00 81  
Wolfforth 6SSW  07:00 PM 85 30 14% SW1418 27 mph 239° @ 0640 PM 88 52 73 13 29.75" 0 0.00 189  

West Texas Mesonet Home   Site Map/Menu  NWS Lubbock Soil Data  Daily Summary Page  24hr Precip  72hr Precip  Google Plot